Terminal Aerodrome Forecast
Issued by NWS

Home | Current Version | Previous Version | Text Only | Print | Product List | Glossary On
Versions: 1 2 3 4 5 6 7 8 9 10 11 12 13 14 15 16 17 18 19 20 21
557
FTUS43 KMPX 240715 AAA
TAFAXN
TAF AMD
KAXN 240715Z 2407/2506 15011KT P6SM VCTS SCT070CB BKN110
     FM240900 15010KT P6SM SCT070 BKN110
     FM241500 18015G23KT P6SM SCT050 BKN150 PROB30 2421/2501 -TSRA
      BKN050CB
     FM250100 18008KT P6SM SCT050=

USA.gov is the U.S. government's official web portal to all federal, state and local government web resources and services.